03:25
Airports
History
Links
Donate
Help keep this website running!
PayPal
Bitcoin
This page is community maintained. The information is intended for PC simulator navigation or reference.
Always use approved charts for navigation.
SD77
Barber Strip
Barber Strip (SD77)
Rapid City, South Dakota, United States (57703)
4
Lat/Lng:44° 0' 0.96" N / 103° 1' 3.63" W
44.000266 / -103.017675
Elevation:3200'ft / 975mMSL
ID / ICAO:SD77
Runways:1
Longest:14-32
Grass 853m / 2,799ft
Nearby Weather02:52 GMT 2018-02-21
Nearby weather at KRAP, Rapid City Rgnl located 3.7 nautical miles from SD77
Altimeter: 30.20
Visibility: 10.0 statute miles
Wind: 0 knots (from 000°)
Temp: -23°c / -9°f
Humidity: 76.2%

METAR: KRAP 210252Z 00000KT 10SM CLR M23/M26 A3020 RMK AO2 SLP324 T12331256 51011

(Powered by phpweather)
Nearby VORs <50NM
Nearby NDBs
Runway 14 / 32
Dimensions:853 x 48.8m 2799' x 160'ft
Surface:Grass
Runway 14 [A]Runway 32 [B]
Heading:151°TH 331°TH
Lat:
Lng:
44° 0' 13.05"N
103° 1' 12.95"W
43° 59' 48.87"N
103° 0' 54.31"W
User Notes and Comments
44° 0' 0.96" N / 103° 1' 3.63" W
Distance To
Airport ID:
Nearby Airports
(C) Rapid City Rgnl 3.7 NM
KRAP ( WX ) NNW 327°
(R) Ellsworth Afb 10.9 NM
KRCA ( WX ) NNW 336°
(U) Custer State Park 25.2 NM
3V0 SW 221°
(R) Paradise Valley 25.5 NM
2SD0 WNW 296°
(U) Sturgis Muni 34.0 NM
49B NNW 328°
(U) Custer County 35.2 NM
KCUT WSW 238°
(R) Bruch Ranch 36.1 NM
SD24 NNW 328°
VFR Chart
Flight Planning at SkyVector.com